createdAt,value
2019-03-09T00:01:34.470Z,11.25
2019-03-09T00:04:04.342Z,11.78
2019-03-09T00:06:34.005Z,8.58
2019-03-09T00:09:04.776Z,11.22
2019-03-09T00:11:34.376Z,10.70
2019-03-09T00:14:04.221Z,9.20
2019-03-09T00:16:34.219Z,16.02
2019-03-09T00:19:03.869Z,8.05
2019-03-09T00:21:33.471Z,7.85
2019-03-09T00:24:13.515Z,6.20
2019-03-09T00:26:57.053Z,8.78
2019-03-09T00:32:01.132Z,13.00
2019-03-09T00:34:30.723Z,10.88
2019-03-09T00:37:00.311Z,9.20
2019-03-09T00:39:29.946Z,12.45
2019-03-09T00:41:59.531Z,11.08
2019-03-09T00:44:29.170Z,12.13
2019-03-09T00:46:58.769Z,9.50
2019-03-09T00:49:28.666Z,10.68
2019-03-09T00:51:58.272Z,6.65
2019-03-09T00:54:27.946Z,8.55
2019-03-09T00:56:57.576Z,10.48
2019-03-09T00:59:27.191Z,5.03
2019-03-09T01:01:56.840Z,6.33
2019-03-09T01:04:26.516Z,7.95
2019-03-09T01:06:56.091Z,8.65
2019-03-09T01:09:25.700Z,7.37
2019-03-09T01:11:55.311Z,7.58
2019-03-09T01:14:24.910Z,6.62
2019-03-09T01:16:54.515Z,4.08
2019-03-09T01:19:24.122Z,7.20
2019-03-09T01:21:53.735Z,4.22
2019-03-09T01:24:23.431Z,6.35
2019-03-09T01:26:53.011Z,6.12
2019-03-09T01:29:22.725Z,5.15
2019-03-09T01:31:52.313Z,6.62
2019-03-09T01:34:21.912Z,6.92
2019-03-09T01:36:51.504Z,6.55
2019-03-09T01:39:21.194Z,7.12
2019-03-09T01:41:50.799Z,5.47
2019-03-09T01:44:20.411Z,7.40
2019-03-09T01:46:50.004Z,7.33
2019-03-09T01:49:19.677Z,7.22
2019-03-09T01:51:49.356Z,6.05
2019-03-09T01:54:18.939Z,8.33
2019-03-09T01:56:48.561Z,5.42
2019-03-09T01:59:18.142Z,6.58
2019-03-09T02:01:47.814Z,5.87
2019-03-09T02:04:17.415Z,6.70
2019-03-09T02:06:47.075Z,8.23
2019-03-09T02:09:17.021Z,9.50
2019-03-09T02:11:46.712Z,6.85
2019-03-09T02:14:16.325Z,5.12
2019-03-09T02:16:45.943Z,7.45
2019-03-09T02:19:15.518Z,7.30
2019-03-09T02:21:45.122Z,4.37
2019-03-09T02:24:14.731Z,5.92
2019-03-09T02:26:44.391Z,4.53
2019-03-09T02:29:14.012Z,5.37
2019-03-09T02:31:43.693Z,3.72
2019-03-09T02:34:13.274Z,5.30
2019-03-09T02:36:42.884Z,4.20
2019-03-09T02:39:14.212Z,5.05
2019-03-09T02:41:43.792Z,5.28
2019-03-09T02:44:13.496Z,4.62
2019-03-09T02:46:43.133Z,5.92
2019-03-09T02:49:12.724Z,3.72
2019-03-09T02:51:42.331Z,5.33
2019-03-09T02:54:11.927Z,6.00
2019-03-09T02:56:41.516Z,5.17
2019-03-09T02:59:11.132Z,6.42
2019-03-09T03:01:42.392Z,6.67
2019-03-09T03:04:12.010Z,5.00
2019-03-09T03:06:41.645Z,6.17
2019-03-09T03:09:11.296Z,11.60
2019-03-09T03:11:40.924Z,6.10
2019-03-09T03:14:10.523Z,5.55
2019-03-09T03:16:40.147Z,6.42
2019-03-09T03:19:09.832Z,6.00
2019-03-09T03:21:39.491Z,5.28
2019-03-09T03:24:09.102Z,5.62
2019-03-09T03:26:38.728Z,6.37
2019-03-09T03:29:08.418Z,7.42
2019-03-09T03:31:38.036Z,7.37
2019-03-09T03:34:07.648Z,7.12
2019-03-09T03:36:37.277Z,4.97
2019-03-09T03:39:07.727Z,7.92
2019-03-09T03:41:37.327Z,9.25
2019-03-09T03:44:06.936Z,7.08
2019-03-09T03:46:36.632Z,8.25
2019-03-09T03:49:06.294Z,9.33
2019-03-09T03:51:35.912Z,8.00
2019-03-09T03:54:05.537Z,11.18
2019-03-09T03:56:35.297Z,8.18
2019-03-09T03:59:04.962Z,7.92
2019-03-09T04:01:34.578Z,6.95
2019-03-09T04:04:04.309Z,7.85
2019-03-09T04:06:33.980Z,9.80
2019-03-09T04:09:04.888Z,11.15
2019-03-09T04:11:35.027Z,10.20
2019-03-09T04:14:04.961Z,11.35
2019-03-09T04:16:34.589Z,9.68
2019-03-09T04:19:04.297Z,9.73
2019-03-09T04:21:33.875Z,12.25
2019-03-09T04:24:03.560Z,10.20
2019-03-09T04:26:33.231Z,10.45
2019-03-09T04:29:02.924Z,12.05
2019-03-09T04:31:32.581Z,11.75
2019-03-09T04:34:02.552Z,10.63
2019-03-09T04:36:32.137Z,13.50
2019-03-09T04:39:01.804Z,13.75
2019-03-09T04:41:31.482Z,16.23
2019-03-09T04:44:01.127Z,12.75
2019-03-09T04:46:30.946Z,14.10
2019-03-09T04:49:01.256Z,14.65
2019-03-09T04:51:30.993Z,12.75
2019-03-09T04:54:00.619Z,12.53
2019-03-09T04:56:30.236Z,13.10
2019-03-09T04:58:59.867Z,12.88
2019-03-09T05:01:29.506Z,13.98
2019-03-09T05:04:21.608Z,10.35
2019-03-09T05:06:51.239Z,10.98
2019-03-09T05:09:26.677Z,11.90
2019-03-09T05:11:56.313Z,11.18
2019-03-09T05:14:25.990Z,11.78
2019-03-09T05:16:55.588Z,15.75
2019-03-09T05:19:25.204Z,10.10
2019-03-09T05:21:54.891Z,14.10
2019-03-09T05:24:24.486Z,14.20
2019-03-09T05:26:54.071Z,13.98
2019-03-09T05:29:23.755Z,11.38
2019-03-09T05:31:53.393Z,10.35
2019-03-09T05:34:23.015Z,15.10
2019-03-09T05:36:52.595Z,13.72
2019-03-09T05:39:22.220Z,12.98
2019-03-09T05:41:51.813Z,15.48
2019-03-09T05:44:21.415Z,17.77
2019-03-09T05:46:51.011Z,13.70
2019-03-09T05:49:20.659Z,12.45
2019-03-09T05:52:22.098Z,13.38
2019-03-09T05:54:51.716Z,12.33
2019-03-09T05:57:21.312Z,10.75
2019-03-09T05:59:51.266Z,18.35
2019-03-09T06:02:20.849Z,14.33
2019-03-09T06:04:50.550Z,15.13
2019-03-09T06:07:20.194Z,12.07
2019-03-09T06:09:49.915Z,12.95
2019-03-09T06:12:19.518Z,10.88
2019-03-09T06:14:49.110Z,14.73
2019-03-09T06:17:18.728Z,12.82
2019-03-09T06:19:48.396Z,12.80
2019-03-09T06:22:17.985Z,9.90
2019-03-09T06:24:47.582Z,11.88
2019-03-09T06:27:17.186Z,17.98
2019-03-09T06:29:46.788Z,14.80
2019-03-09T06:32:34.537Z,11.30
2019-03-09T06:35:07.591Z,15.80
2019-03-09T06:37:37.185Z,15.80
2019-03-09T06:40:09.200Z,16.32
2019-03-09T06:42:44.339Z,15.95
2019-03-09T06:45:14.019Z,13.60
2019-03-09T06:47:43.698Z,15.88
2019-03-09T06:50:15.646Z,11.90
2019-03-09T06:52:45.414Z,16.00
2019-03-09T06:55:15.505Z,16.07
2019-03-09T06:57:45.098Z,14.23
2019-03-09T07:00:31.932Z,18.35
2019-03-09T07:03:02.064Z,15.38
2019-03-09T07:05:31.683Z,23.77
2019-03-09T07:08:01.341Z,26.52
2019-03-09T07:10:30.956Z,20.85
2019-03-09T07:13:00.575Z,20.70
2019-03-09T07:15:35.790Z,23.18
2019-03-09T07:18:08.041Z,18.42
2019-03-09T07:20:37.663Z,15.85
2019-03-09T07:23:07.260Z,16.02
2019-03-09T07:25:36.870Z,19.65
2019-03-09T07:28:11.811Z,19.25
2019-03-09T07:30:41.465Z,15.98
2019-03-09T07:33:11.091Z,21.23
2019-03-09T07:35:40.668Z,15.75
2019-03-09T07:38:10.261Z,14.00
2019-03-09T07:40:39.865Z,17.87
2019-03-09T07:43:09.462Z,21.25
2019-03-09T07:45:39.096Z,21.42
2019-03-09T07:48:08.679Z,19.40
2019-03-09T07:50:38.274Z,19.25
2019-03-09T07:53:07.967Z,17.35
2019-03-09T07:55:37.555Z,20.72
2019-03-09T07:58:07.359Z,21.30
2019-03-09T08:00:37.047Z,25.68
2019-03-09T08:03:06.731Z,23.25
2019-03-09T08:05:36.340Z,26.15
2019-03-09T08:08:05.948Z,19.60
2019-03-09T08:10:35.627Z,19.50
2019-03-09T08:13:05.434Z,14.98
2019-03-09T08:15:35.126Z,19.15
2019-03-09T08:18:04.823Z,17.25
2019-03-09T08:20:34.479Z,16.87
2019-03-09T08:23:04.068Z,18.87
2019-03-09T08:25:33.788Z,19.92
2019-03-09T08:28:03.403Z,19.48
2019-03-09T08:30:33.061Z,23.10
2019-03-09T08:33:02.686Z,23.77
2019-03-09T08:35:32.356Z,22.67
2019-03-09T08:38:02.011Z,21.55
2019-03-09T08:40:31.626Z,23.27
2019-03-09T08:43:01.243Z,28.50
2019-03-09T08:45:30.890Z,22.77
2019-03-09T08:48:00.482Z,24.87
2019-03-09T08:50:30.065Z,27.67
2019-03-09T08:52:59.685Z,23.75
2019-03-09T08:55:29.291Z,19.48
2019-03-09T08:57:58.921Z,22.42
2019-03-09T09:00:33.171Z,24.02
2019-03-09T09:03:02.848Z,23.10
2019-03-09T09:05:32.416Z,20.70
2019-03-09T09:08:03.775Z,26.00
2019-03-09T09:10:33.415Z,23.47
2019-03-09T09:13:03.026Z,16.35
2019-03-09T09:15:32.628Z,21.20
2019-03-09T09:18:02.240Z,21.15
2019-03-09T09:20:31.875Z,27.55
2019-03-09T09:23:01.521Z,25.25
2019-03-09T09:25:31.130Z,27.65
2019-03-09T09:28:00.735Z,23.05
2019-03-09T09:30:31.689Z,30.27
2019-03-09T09:33:01.313Z,24.80
2019-03-09T09:35:31.034Z,24.95
2019-03-09T09:38:00.874Z,32.85
2019-03-09T09:40:30.572Z,27.73
2019-03-09T09:43:00.198Z,24.77
2019-03-09T09:45:29.975Z,21.05
2019-03-09T09:47:59.579Z,26.27
2019-03-09T09:50:29.287Z,25.35
2019-03-09T09:52:58.921Z,26.97
2019-03-09T09:55:28.569Z,24.90
2019-03-09T09:57:58.172Z,32.95
2019-03-09T10:00:28.661Z,22.02
2019-03-09T10:02:58.231Z,18.42
2019-03-09T10:05:28.000Z,26.93
2019-03-09T10:07:57.641Z,23.02
2019-03-09T10:10:29.619Z,25.08
2019-03-09T10:12:58.561Z,21.42
2019-03-09T10:15:31.228Z,26.00
2019-03-09T10:18:00.925Z,35.38
2019-03-09T10:20:30.547Z,25.57
2019-03-09T10:23:04.519Z,23.15
2019-03-09T10:25:31.366Z,21.37
2019-03-09T10:28:00.966Z,22.27
2019-03-09T10:30:30.600Z,22.65
2019-03-09T10:33:00.202Z,23.83
2019-03-09T10:35:29.873Z,26.40
2019-03-09T10:37:59.421Z,25.35
2019-03-09T10:40:29.045Z,20.50
2019-03-09T10:42:58.638Z,21.60
2019-03-09T10:45:28.333Z,23.55
2019-03-09T10:47:57.939Z,25.27
2019-03-09T10:50:27.558Z,25.57
2019-03-09T10:52:57.184Z,30.10
2019-03-09T10:55:34.806Z,23.27
2019-03-09T10:58:04.777Z,18.75
2019-03-09T11:00:39.351Z,29.75
2019-03-09T11:03:09.172Z,21.90
2019-03-09T11:05:38.808Z,28.67
2019-03-09T11:08:08.501Z,28.85
2019-03-09T11:10:38.263Z,25.77
2019-03-09T11:13:07.864Z,28.38
2019-03-09T11:15:37.970Z,22.52
2019-03-09T11:18:07.883Z,29.50
2019-03-09T11:20:37.514Z,26.75
2019-03-09T11:23:07.144Z,26.48
2019-03-09T11:25:36.799Z,28.27
2019-03-09T11:28:11.755Z,30.43
2019-03-09T11:30:41.398Z,30.88
2019-03-09T11:33:11.023Z,32.63
2019-03-09T11:35:40.647Z,29.75
2019-03-09T11:38:10.284Z,33.18
2019-03-09T11:40:39.917Z,37.28
2019-03-09T11:43:09.575Z,36.15
2019-03-09T11:45:39.188Z,36.60
2019-03-09T11:48:08.895Z,32.33
2019-03-09T11:50:38.601Z,35.68
2019-03-09T11:53:08.199Z,35.48
2019-03-09T11:55:37.806Z,36.28
2019-03-09T11:58:07.435Z,34.23
2019-03-09T12:00:41.815Z,37.03
2019-03-09T12:03:11.443Z,34.70
2019-03-09T12:05:41.067Z,34.58
2019-03-09T12:08:10.755Z,38.67
2019-03-09T12:10:40.390Z,45.03
2019-03-09T12:13:09.997Z,33.38
2019-03-09T12:15:39.611Z,43.45
2019-03-09T12:18:09.214Z,44.10
2019-03-09T12:20:38.900Z,41.13
2019-03-09T12:23:22.832Z,32.83
2019-03-09T12:25:52.846Z,41.98
2019-03-09T12:28:22.451Z,50.30
2019-03-09T12:30:52.141Z,40.23
2019-03-09T12:33:21.822Z,39.60
2019-03-09T12:35:51.459Z,50.63
2019-03-09T12:38:21.075Z,35.75
2019-03-09T12:40:50.692Z,50.28
2019-03-09T12:43:20.371Z,41.20
2019-03-09T12:45:49.970Z,37.23
2019-03-09T12:48:19.571Z,42.45
2019-03-09T12:50:49.216Z,41.58
2019-03-09T12:53:18.808Z,42.93
2019-03-09T12:55:48.583Z,44.30
2019-03-09T12:58:18.237Z,40.83
2019-03-09T13:00:47.914Z,44.05
2019-03-09T13:03:17.572Z,44.05
2019-03-09T13:05:48.876Z,40.48
2019-03-09T13:08:18.495Z,40.12
2019-03-09T13:10:48.089Z,37.48
2019-03-09T13:13:17.789Z,44.88
2019-03-09T13:15:47.435Z,42.62
2019-03-09T13:18:17.037Z,32.55
2019-03-09T13:20:46.631Z,32.33
2019-03-09T13:23:16.310Z,25.80
2019-03-09T13:25:46.079Z,36.33
2019-03-09T13:28:16.258Z,29.40
2019-03-09T13:30:46.132Z,28.67
2019-03-09T13:33:15.756Z,29.65
2019-03-09T13:35:45.394Z,25.00
2019-03-09T13:38:14.988Z,28.30
2019-03-09T13:40:44.627Z,28.62
2019-03-09T13:43:14.237Z,29.02
2019-03-09T13:45:43.846Z,28.55
2019-03-09T13:48:13.540Z,32.45
2019-03-09T13:50:43.139Z,32.05
2019-03-09T13:53:12.778Z,27.52
2019-03-09T13:55:42.374Z,26.40
2019-03-09T13:58:11.979Z,34.83
2019-03-09T14:00:41.591Z,27.95
2019-03-09T14:03:11.236Z,26.97
2019-03-09T14:05:40.833Z,23.35
2019-03-09T14:08:10.547Z,31.60
2019-03-09T14:10:40.151Z,29.65
2019-03-09T14:13:09.827Z,26.00
2019-03-09T14:15:39.410Z,21.27
2019-03-09T14:18:09.006Z,34.00
2019-03-09T14:20:38.595Z,31.55
2019-03-09T14:23:08.228Z,31.85
2019-03-09T14:25:37.835Z,27.70
2019-03-09T14:28:07.447Z,27.52
2019-03-09T14:30:37.049Z,36.65
2019-03-09T14:33:06.663Z,27.85
2019-03-09T14:35:36.290Z,26.50
2019-03-09T14:38:05.894Z,27.70
2019-03-09T14:40:35.487Z,24.60
2019-03-09T14:43:05.166Z,25.75
2019-03-09T14:45:34.776Z,23.42
2019-03-09T14:48:04.466Z,29.95
2019-03-09T14:50:34.082Z,30.82
2019-03-09T14:53:03.708Z,23.02
2019-03-09T14:55:33.285Z,30.65
2019-03-09T14:58:02.896Z,30.17
2019-03-09T15:00:32.572Z,32.35
2019-03-09T15:03:02.176Z,31.60
2019-03-09T15:05:31.788Z,26.45
2019-03-09T15:08:01.416Z,38.95
2019-03-09T15:10:31.017Z,27.00
2019-03-09T15:13:00.708Z,28.85
2019-03-09T15:15:33.343Z,37.08
2019-03-09T15:18:03.007Z,28.67
2019-03-09T15:20:32.611Z,32.08
2019-03-09T15:23:02.311Z,29.57
2019-03-09T15:25:31.933Z,30.72
2019-03-09T15:28:01.543Z,35.28
2019-03-09T15:30:32.953Z,32.05
2019-03-09T15:33:05.930Z,32.30
2019-03-09T15:35:35.535Z,32.15
2019-03-09T15:38:05.139Z,33.83
2019-03-09T15:40:34.739Z,26.62
2019-03-09T15:43:05.955Z,40.03
2019-03-09T15:45:35.696Z,51.92
2019-03-09T15:48:06.527Z,35.63
2019-03-09T15:50:36.140Z,34.78
2019-03-09T15:53:05.738Z,35.00
2019-03-09T15:55:38.443Z,30.75
2019-03-09T15:58:08.131Z,29.82
2019-03-09T16:00:37.750Z,34.85
2019-03-09T16:03:07.519Z,35.83
2019-03-09T16:05:37.267Z,31.35
2019-03-09T16:08:06.875Z,33.75
2019-03-09T16:10:38.596Z,29.00
2019-03-09T16:13:08.211Z,34.65
2019-03-09T16:15:37.819Z,41.30
2019-03-09T16:18:07.414Z,31.42
2019-03-09T16:20:37.076Z,31.97
2019-03-09T16:23:06.673Z,37.95
2019-03-09T16:25:36.280Z,40.78
2019-03-09T16:28:05.943Z,28.20
2019-03-09T16:30:35.560Z,39.08
2019-03-09T16:33:05.148Z,34.98
2019-03-09T16:35:34.762Z,37.78
2019-03-09T16:38:04.439Z,31.70
2019-03-09T16:40:40.494Z,33.00
2019-03-09T16:43:05.283Z,38.67
2019-03-09T16:45:34.887Z,47.15
2019-03-09T16:48:04.710Z,26.00
2019-03-09T16:50:34.321Z,36.73
2019-03-09T16:53:03.900Z,36.20
2019-03-09T16:55:33.546Z,41.48
2019-03-09T16:58:03.151Z,33.15
2019-03-09T17:00:32.791Z,38.73
2019-03-09T17:03:02.355Z,38.50
2019-03-09T17:05:32.119Z,44.23
2019-03-09T17:08:01.721Z,36.63
2019-03-09T17:10:31.476Z,44.30
2019-03-09T17:13:01.098Z,37.67
2019-03-09T17:15:30.716Z,40.85
2019-03-09T17:18:00.304Z,37.63
2019-03-09T17:20:29.939Z,41.58
2019-03-09T17:22:59.530Z,42.27
2019-03-09T17:25:29.145Z,43.50
2019-03-09T17:27:58.943Z,48.02
2019-03-09T17:30:28.527Z,39.63
2019-03-09T17:32:58.190Z,40.75
2019-03-09T17:35:29.525Z,40.45
2019-03-09T17:37:59.135Z,49.23
2019-03-09T17:40:28.736Z,35.43
2019-03-09T17:42:58.376Z,43.68
2019-03-09T17:45:28.464Z,40.70
2019-03-09T17:47:58.060Z,41.70
2019-03-09T17:50:27.660Z,41.15
2019-03-09T17:52:57.279Z,43.00
2019-03-09T17:55:26.899Z,42.78
2019-03-09T17:57:56.535Z,38.33
2019-03-09T18:00:41.845Z,39.38
2019-03-09T18:03:02.700Z,40.10
2019-03-09T18:05:32.292Z,47.88
2019-03-09T18:08:07.367Z,41.45
2019-03-09T18:10:43.017Z,40.63
2019-03-09T18:13:12.632Z,38.60
2019-03-09T18:15:42.223Z,39.85
2019-03-09T18:18:11.898Z,36.23
2019-03-09T18:20:41.509Z,40.60
2019-03-09T18:23:11.096Z,37.80
2019-03-09T18:25:40.692Z,39.80
2019-03-09T18:28:10.807Z,38.95
2019-03-09T18:30:40.406Z,43.98
2019-03-09T18:33:10.039Z,33.85
2019-03-09T18:35:41.657Z,38.67
2019-03-09T18:38:10.859Z,50.52
2019-03-09T18:40:40.498Z,38.78
2019-03-09T18:43:10.101Z,44.35
2019-03-09T18:45:39.717Z,54.48
2019-03-09T18:48:09.360Z,45.67
2019-03-09T18:50:38.940Z,40.35
2019-03-09T18:53:08.544Z,43.48
2019-03-09T18:55:38.168Z,52.60
2019-03-09T18:58:07.775Z,48.25
2019-03-09T19:00:37.354Z,42.62
2019-03-09T19:03:06.990Z,36.63
2019-03-09T19:05:36.585Z,39.58
2019-03-09T19:08:06.297Z,41.60
2019-03-09T19:10:35.884Z,36.33
2019-03-09T19:13:05.572Z,34.75
2019-03-09T19:15:35.207Z,47.45
2019-03-09T19:18:04.859Z,44.80
2019-03-09T19:20:34.460Z,44.45
2019-03-09T19:23:04.142Z,45.45
2019-03-09T19:25:33.992Z,39.13
2019-03-09T19:28:03.640Z,42.38
2019-03-09T19:30:34.860Z,44.95
2019-03-09T19:33:04.469Z,43.20
2019-03-09T19:35:34.683Z,48.00
2019-03-09T19:38:04.298Z,49.42
2019-03-09T19:40:33.886Z,41.42
2019-03-09T19:43:03.485Z,42.60
2019-03-09T19:45:33.077Z,48.63
2019-03-09T19:48:02.753Z,42.17
2019-03-09T19:50:32.351Z,45.08
2019-03-09T19:53:01.968Z,42.58
2019-03-09T19:55:31.624Z,44.45
2019-03-09T19:58:01.319Z,41.35
2019-03-09T20:00:30.923Z,38.17
2019-03-09T20:03:00.537Z,50.88
2019-03-09T20:05:30.149Z,38.38
2019-03-09T20:07:59.790Z,47.30
2019-03-09T20:10:30.530Z,45.78
2019-03-09T20:13:00.129Z,45.08
2019-03-09T20:15:29.807Z,40.90
2019-03-09T20:17:59.486Z,43.20
2019-03-09T20:20:29.087Z,46.68
2019-03-09T20:22:58.676Z,51.23
2019-03-09T20:25:28.619Z,46.25
2019-03-09T20:27:58.550Z,44.63
2019-03-09T20:30:28.155Z,48.23
2019-03-09T20:32:57.735Z,41.77
2019-03-09T20:35:27.757Z,48.78
2019-03-09T20:37:57.352Z,43.33
2019-03-09T20:40:27.005Z,42.50
2019-03-09T20:42:56.546Z,37.98
2019-03-09T20:45:26.157Z,46.00
2019-03-09T20:47:55.748Z,45.50
2019-03-09T20:50:32.071Z,42.15
2019-03-09T20:53:01.673Z,45.05
2019-03-09T20:55:31.289Z,30.23
2019-03-09T20:58:01.250Z,42.50
2019-03-09T21:00:30.891Z,42.60
2019-03-09T21:03:00.483Z,40.92
2019-03-09T21:05:30.109Z,44.00
2019-03-09T21:07:59.687Z,39.85
2019-03-09T21:10:29.353Z,41.37
2019-03-09T21:13:11.956Z,38.53
2019-03-09T21:15:41.550Z,32.80
2019-03-09T21:18:11.179Z,36.53
2019-03-09T21:20:40.775Z,36.23
2019-03-09T21:23:10.368Z,37.42
2019-03-09T21:25:41.622Z,39.88
2019-03-09T21:28:11.222Z,32.42
2019-03-09T21:30:40.849Z,42.58
2019-03-09T21:33:10.840Z,31.65
2019-03-09T21:35:40.598Z,36.58
2019-03-09T21:38:10.229Z,32.95
2019-03-09T21:40:39.863Z,40.63
2019-03-09T21:43:09.467Z,32.08
2019-03-09T21:45:39.076Z,37.38
2019-03-09T21:48:08.742Z,44.38
2019-03-09T21:50:38.317Z,45.33
2019-03-09T21:53:08.028Z,34.60
2019-03-09T21:55:37.635Z,43.42
2019-03-09T21:58:07.230Z,36.20
2019-03-09T22:00:36.834Z,39.38
2019-03-09T22:03:06.433Z,40.35
2019-03-09T22:05:36.048Z,37.83
2019-03-09T22:08:05.668Z,42.90
2019-03-09T22:10:35.327Z,35.85
2019-03-09T22:13:04.962Z,39.70
2019-03-09T22:15:34.567Z,39.00
2019-03-09T22:18:04.232Z,38.92
2019-03-09T22:20:33.841Z,36.25
2019-03-09T22:23:03.436Z,37.75
2019-03-09T22:25:33.260Z,34.48
2019-03-09T22:28:02.849Z,38.40
2019-03-09T22:30:32.508Z,37.90
2019-03-09T22:33:04.623Z,36.10
2019-03-09T22:35:33.947Z,33.60
2019-03-09T22:38:03.615Z,31.20
2019-03-09T22:40:33.296Z,40.58
2019-03-09T22:43:02.894Z,33.58
2019-03-09T22:45:32.491Z,31.45
2019-03-09T22:48:02.134Z,38.92
2019-03-09T22:50:31.735Z,37.63
2019-03-09T22:53:01.339Z,37.28
2019-03-09T22:55:30.943Z,41.30
2019-03-09T22:58:00.549Z,36.08
2019-03-09T23:00:31.411Z,43.00
2019-03-09T23:03:01.092Z,44.70
2019-03-09T23:05:30.784Z,35.98
2019-03-09T23:08:00.421Z,51.15
2019-03-09T23:10:30.072Z,45.55
2019-03-09T23:12:59.682Z,42.38
2019-03-09T23:15:29.311Z,42.88
2019-03-09T23:17:58.944Z,39.25
2019-03-09T23:20:28.543Z,45.28
2019-03-09T23:22:58.145Z,45.70
2019-03-09T23:25:27.950Z,51.10
2019-03-09T23:27:57.558Z,48.48
2019-03-09T23:30:27.143Z,46.88
2019-03-09T23:32:56.769Z,39.38
2019-03-09T23:35:26.435Z,43.08
2019-03-09T23:37:56.028Z,41.05
2019-03-09T23:40:25.639Z,48.83
2019-03-09T23:42:55.243Z,45.70
2019-03-09T23:45:26.776Z,39.35
2019-03-09T23:47:56.456Z,54.50
2019-03-09T23:50:26.107Z,55.85
2019-03-09T23:52:55.796Z,40.95
2019-03-09T23:55:25.416Z,41.48
2019-03-09T23:57:55.011Z,39.50
